sensor_id;sensor_type;location;lat;lon;timestamp;temperature;humidity
75500;DHT22;64076;51.466;7.260;2022-12-20T00:05:36;20.10;38.50
75500;DHT22;64076;51.466;7.260;2022-12-20T00:22:38;20.10;38.60
75500;DHT22;64076;51.466;7.260;2022-12-20T00:25:04;20.10;38.70
75500;DHT22;64076;51.466;7.260;2022-12-20T00:27:29;20.10;38.70
75500;DHT22;64076;51.466;7.260;2022-12-20T00:29:55;20.10;38.80
75500;DHT22;64076;51.466;7.260;2022-12-20T00:32:20;20.10;38.80
75500;DHT22;64076;51.466;7.260;2022-12-20T00:34:46;20.10;38.70
75500;DHT22;64076;51.466;7.260;2022-12-20T00:37:11;20.10;38.80
75500;DHT22;64076;51.466;7.260;2022-12-20T00:39:37;20.10;38.80
75500;DHT22;64076;51.466;7.260;2022-12-20T00:42:03;20.10;38.80
75500;DHT22;64076;51.466;7.260;2022-12-20T00:44:28;20.10;38.80
75500;DHT22;64076;51.466;7.260;2022-12-20T00:46:54;20.10;38.80
75500;DHT22;64076;51.466;7.260;2022-12-20T00:49:19;20.10;38.80
75500;DHT22;64076;51.466;7.260;2022-12-20T00:56:37;20.10;38.80
75500;DHT22;64076;51.466;7.260;2022-12-20T06:41:12;20.10;38.90
75500;DHT22;64076;51.466;7.260;2022-12-20T06:43:38;20.40;42.80
75500;DHT22;64076;51.466;7.260;2022-12-20T06:46:04;20.40;42.80
75500;DHT22;64076;51.466;7.260;2022-12-20T06:48:30;20.40;42.90
75500;DHT22;64076;51.466;7.260;2022-12-20T06:50:56;20.40;42.90
75500;DHT22;64076;51.466;7.260;2022-12-20T06:53:22;20.40;42.90
75500;DHT22;64076;51.466;7.260;2022-12-20T06:55:47;20.40;42.90
75500;DHT22;64076;51.466;7.260;2022-12-20T06:58:15;20.40;42.90
75500;DHT22;64076;51.466;7.260;2022-12-20T07:00:40;20.50;42.90
75500;DHT22;64076;51.466;7.260;2022-12-20T07:03:06;20.40;42.90
75500;DHT22;64076;51.466;7.260;2022-12-20T07:05:31;20.40;42.90
75500;DHT22;64076;51.466;7.260;2022-12-20T07:07:57;20.40;42.90
75500;DHT22;64076;51.466;7.260;2022-12-20T07:10:23;20.50;42.90
75500;DHT22;64076;51.466;7.260;2022-12-20T07:12:48;20.50;42.90
75500;DHT22;64076;51.466;7.260;2022-12-20T07:15:14;20.50;42.90
75500;DHT22;64076;51.466;7.260;2022-12-20T07:17:40;20.50;42.90
75500;DHT22;64076;51.466;7.260;2022-12-20T07:20:06;20.50;42.90
75500;DHT22;64076;51.466;7.260;2022-12-20T07:22:31;20.50;42.90
75500;DHT22;64076;51.466;7.260;2022-12-20T07:24:59;20.50;42.90
75500;DHT22;64076;51.466;7.260;2022-12-20T07:27:24;20.50;42.80
75500;DHT22;64076;51.466;7.260;2022-12-20T07:29:50;20.50;42.90
75500;DHT22;64076;51.466;7.260;2022-12-20T07:32:15;20.50;43.00
75500;DHT22;64076;51.466;7.260;2022-12-20T07:34:41;20.50;43.00
75500;DHT22;64076;51.466;7.260;2022-12-20T07:37:07;20.50;42.90
75500;DHT22;64076;51.466;7.260;2022-12-20T07:39:33;20.50;42.90
75500;DHT22;64076;51.466;7.260;2022-12-20T07:41:58;20.50;42.90
75500;DHT22;64076;51.466;7.260;2022-12-20T07:44:24;20.60;42.90
75500;DHT22;64076;51.466;7.260;2022-12-20T07:46:50;20.50;43.00
75500;DHT22;64076;51.466;7.260;2022-12-20T09:10:00;20.60;42.80
75500;DHT22;64076;51.466;7.260;2022-12-20T09:12:26;20.80;42.40
75500;DHT22;64076;51.466;7.260;2022-12-20T09:14:52;20.80;42.40
75500;DHT22;64076;51.466;7.260;2022-12-20T09:17:17;20.70;42.40
75500;DHT22;64076;51.466;7.260;2022-12-20T09:19:43;20.70;42.40
75500;DHT22;64076;51.466;7.260;2022-12-20T09:22:09;20.80;42.40
75500;DHT22;64076;51.466;7.260;2022-12-20T09:24:36;20.70;42.40
75500;DHT22;64076;51.466;7.260;2022-12-20T09:27:02;20.80;42.30
75500;DHT22;64076;51.466;7.260;2022-12-20T09:29:27;20.80;42.40
75500;DHT22;64076;51.466;7.260;2022-12-20T09:31:53;20.80;42.40
75500;DHT22;64076;51.466;7.260;2022-12-20T09:34:19;20.80;42.40
75500;DHT22;64076;51.466;7.260;2022-12-20T09:36:45;20.80;42.30
75500;DHT22;64076;51.466;7.260;2022-12-20T09:39:11;20.80;42.30
75500;DHT22;64076;51.466;7.260;2022-12-20T09:41:39;20.80;42.40
75500;DHT22;64076;51.466;7.260;2022-12-20T09:44:33;20.80;42.30
75500;DHT22;64076;51.466;7.260;2022-12-20T09:47:16;20.80;42.30
75500;DHT22;64076;51.466;7.260;2022-12-20T09:49:46;20.80;42.40
75500;DHT22;64076;51.466;7.260;2022-12-20T09:52:49;20.80;42.40
75500;DHT22;64076;51.466;7.260;2022-12-20T09:55:49;20.80;42.40
75500;DHT22;64076;51.466;7.260;2022-12-20T10:00:47;20.80;42.40
75500;DHT22;64076;51.466;7.260;2022-12-20T10:03:20;20.80;42.40
75500;DHT22;64076;51.466;7.260;2022-12-20T10:08:53;20.80;42.40
75500;DHT22;64076;51.466;7.260;2022-12-20T11:22:28;21.00;43.20
75500;DHT22;64076;51.466;7.260;2022-12-20T11:30:50;21.10;43.00
75500;DHT22;64076;51.466;7.260;2022-12-20T11:33:33;21.10;43.20
75500;DHT22;64076;51.466;7.260;2022-12-20T11:36:05;21.10;43.00
75500;DHT22;64076;51.466;7.260;2022-12-20T11:38:42;21.10;43.00
75500;DHT22;64076;51.466;7.260;2022-12-20T11:44:15;21.10;42.90
75500;DHT22;64076;51.466;7.260;2022-12-20T11:52:13;21.10;43.00
75500;DHT22;64076;51.466;7.260;2022-12-20T11:54:47;21.10;42.90
75500;DHT22;64076;51.466;7.260;2022-12-20T11:57:31;21.10;43.00
75500;DHT22;64076;51.466;7.260;2022-12-20T12:00:00;21.10;43.00
75500;DHT22;64076;51.466;7.260;2022-12-20T12:02:37;21.10;43.00
75500;DHT22;64076;51.466;7.260;2022-12-20T12:05:27;21.10;43.00
75500;DHT22;64076;51.466;7.260;2022-12-20T12:07:58;21.10;43.00
75500;DHT22;64076;51.466;7.260;2022-12-20T12:10:36;21.10;43.00
75500;DHT22;64076;51.466;7.260;2022-12-20T12:16:05;21.10;42.90
75500;DHT22;64076;51.466;7.260;2022-12-20T12:18:34;21.20;42.90
75500;DHT22;64076;51.466;7.260;2022-12-20T12:21:08;21.20;42.80
75500;DHT22;64076;51.466;7.260;2022-12-20T12:24:00;21.20;42.80
75500;DHT22;64076;51.466;7.260;2022-12-20T12:26:32;21.20;42.70
75500;DHT22;64076;51.466;7.260;2022-12-20T12:31:57;21.20;42.70
75500;DHT22;64076;51.466;7.260;2022-12-20T12:37:07;21.20;42.60
75500;DHT22;64076;51.466;7.260;2022-12-20T12:45:45;21.20;42.60
75500;DHT22;64076;51.466;7.260;2022-12-20T12:48:34;21.20;42.60
75500;DHT22;64076;51.466;7.260;2022-12-20T12:51:01;21.20;42.60
75500;DHT22;64076;51.466;7.260;2022-12-20T12:53:49;21.20;42.50
75500;DHT22;64076;51.466;7.260;2022-12-20T13:12:55;21.20;42.70
75500;DHT22;64076;51.466;7.260;2022-12-20T13:17:50;21.20;42.80
75500;DHT22;64076;51.466;7.260;2022-12-20T13:20:27;21.20;42.90
75500;DHT22;64076;51.466;7.260;2022-12-20T13:25:48;21.20;43.10
75500;DHT22;64076;51.466;7.260;2022-12-20T13:30:47;21.20;43.20
75500;DHT22;64076;51.466;7.260;2022-12-20T13:33:47;21.20;43.40
75500;DHT22;64076;51.466;7.260;2022-12-20T13:41:32;21.20;43.60
75500;DHT22;64076;51.466;7.260;2022-12-20T13:44:07;21.20;43.90
75500;DHT22;64076;51.466;7.260;2022-12-20T13:46:53;21.20;43.90
75500;DHT22;64076;51.466;7.260;2022-12-20T13:49:31;21.20;44.10
75500;DHT22;64076;51.466;7.260;2022-12-20T13:54:47;21.30;44.50
75500;DHT22;64076;51.466;7.260;2022-12-20T13:57:16;21.20;44.60
75500;DHT22;64076;51.466;7.260;2022-12-20T13:59:46;21.20;44.70
75500;DHT22;64076;51.466;7.260;2022-12-20T14:02:42;21.30;44.80
75500;DHT22;64076;51.466;7.260;2022-12-20T14:05:18;21.30;44.90
75500;DHT22;64076;51.466;7.260;2022-12-20T14:07:56;21.30;45.00
75500;DHT22;64076;51.466;7.260;2022-12-20T14:10:25;21.30;45.10
75500;DHT22;64076;51.466;7.260;2022-12-20T14:12:51;21.30;45.00
75500;DHT22;64076;51.466;7.260;2022-12-20T14:15:33;21.20;45.10
75500;DHT22;64076;51.466;7.260;2022-12-20T14:21:20;21.20;45.10
75500;DHT22;64076;51.466;7.260;2022-12-20T14:23:41;21.20;45.10
75500;DHT22;64076;51.466;7.260;2022-12-20T14:26:25;21.30;45.10
75500;DHT22;64076;51.466;7.260;2022-12-20T14:28:54;21.30;45.20
75500;DHT22;64076;51.466;7.260;2022-12-20T14:36:40;21.30;45.20
75500;DHT22;64076;51.466;7.260;2022-12-20T14:39:32;21.20;45.20
75500;DHT22;64076;51.466;7.260;2022-12-20T14:42:02;21.20;45.20
75500;DHT22;64076;51.466;7.260;2022-12-20T14:44:36;21.20;45.20
75500;DHT22;64076;51.466;7.260;2022-12-20T14:47:24;21.20;45.20
75500;DHT22;64076;51.466;7.260;2022-12-20T14:49:58;21.20;45.20
75500;DHT22;64076;51.466;7.260;2022-12-20T14:52:33;21.20;45.30
75500;DHT22;64076;51.466;7.260;2022-12-20T14:55:04;21.20;45.20
75500;DHT22;64076;51.466;7.260;2022-12-20T15:00:21;21.20;45.30
75500;DHT22;64076;51.466;7.260;2022-12-20T15:03:18;21.30;45.40
75500;DHT22;64076;51.466;7.260;2022-12-20T15:05:46;21.30;45.40
75500;DHT22;64076;51.466;7.260;2022-12-20T15:08:17;21.30;45.40
75500;DHT22;64076;51.466;7.260;2022-12-20T15:10:48;21.20;45.40
75500;DHT22;64076;51.466;7.260;2022-12-20T15:13:16;21.30;45.40
75500;DHT22;64076;51.466;7.260;2022-12-20T15:15:42;21.30;45.40
75500;DHT22;64076;51.466;7.260;2022-12-20T15:18:13;21.30;45.40
75500;DHT22;64076;51.466;7.260;2022-12-20T15:20:41;21.30;45.40
75500;DHT22;64076;51.466;7.260;2022-12-20T15:23:18;21.30;45.40
75500;DHT22;64076;51.466;7.260;2022-12-20T15:25:44;21.30;45.50
75500;DHT22;64076;51.466;7.260;2022-12-20T15:28:16;21.30;45.40
75500;DHT22;64076;51.466;7.260;2022-12-20T15:30:43;21.30;45.40
75500;DHT22;64076;51.466;7.260;2022-12-20T15:33:16;21.30;45.40
75500;DHT22;64076;51.466;7.260;2022-12-20T15:35:42;21.30;45.50
75500;DHT22;64076;51.466;7.260;2022-12-20T15:38:13;21.30;45.50
75500;DHT22;64076;51.466;7.260;2022-12-20T15:40:41;21.30;45.40
75500;DHT22;64076;51.466;7.260;2022-12-20T15:43:15;21.30;45.40
75500;DHT22;64076;51.466;7.260;2022-12-20T15:45:42;21.30;45.50
75500;DHT22;64076;51.466;7.260;2022-12-20T15:48:16;21.30;45.40
75500;DHT22;64076;51.466;7.260;2022-12-20T15:50:47;21.30;45.50
75500;DHT22;64076;51.466;7.260;2022-12-20T15:53:15;21.30;45.60
75500;DHT22;64076;51.466;7.260;2022-12-20T15:55:41;21.20;45.50
75500;DHT22;64076;51.466;7.260;2022-12-20T15:58:08;21.30;45.50
75500;DHT22;64076;51.466;7.260;2022-12-20T16:00:37;21.20;45.50
75500;DHT22;64076;51.466;7.260;2022-12-20T16:03:03;21.30;45.50
75500;DHT22;64076;51.466;7.260;2022-12-20T16:05:29;21.20;45.50
75500;DHT22;64076;51.466;7.260;2022-12-20T16:07:54;21.20;45.50
75500;DHT22;64076;51.466;7.260;2022-12-20T16:10:20;21.20;45.50
75500;DHT22;64076;51.466;7.260;2022-12-20T16:12:45;21.30;45.40
75500;DHT22;64076;51.466;7.260;2022-12-20T16:15:19;21.30;45.40
75500;DHT22;64076;51.466;7.260;2022-12-20T16:17:45;21.30;45.40
75500;DHT22;64076;51.466;7.260;2022-12-20T16:20:11;21.30;45.40
75500;DHT22;64076;51.466;7.260;2022-12-20T16:22:37;21.20;45.30
75500;DHT22;64076;51.466;7.260;2022-12-20T16:25:03;21.20;45.30
75500;DHT22;64076;51.466;7.260;2022-12-20T16:27:28;21.30;45.30
75500;DHT22;64076;51.466;7.260;2022-12-20T16:29:54;21.30;45.20
75500;DHT22;64076;51.466;7.260;2022-12-20T16:32:20;21.30;45.20
75500;DHT22;64076;51.466;7.260;2022-12-20T16:34:47;21.30;45.20
75500;DHT22;64076;51.466;7.260;2022-12-20T16:37:13;21.30;45.20
75500;DHT22;64076;51.466;7.260;2022-12-20T16:39:39;21.30;45.10
75500;DHT22;64076;51.466;7.260;2022-12-20T16:42:12;21.30;45.10
75500;DHT22;64076;51.466;7.260;2022-12-20T16:44:39;21.30;45.10
75500;DHT22;64076;51.466;7.260;2022-12-20T16:47:07;21.30;45.10
75500;DHT22;64076;51.466;7.260;2022-12-20T16:49:34;21.20;45.10
75500;DHT22;64076;51.466;7.260;2022-12-20T16:51:59;21.30;45.10
75500;DHT22;64076;51.466;7.260;2022-12-20T16:54:25;21.30;45.10
75500;DHT22;64076;51.466;7.260;2022-12-20T16:56:51;21.30;45.10
75500;DHT22;64076;51.466;7.260;2022-12-20T16:59:20;21.30;45.00
75500;DHT22;64076;51.466;7.260;2022-12-20T17:01:46;21.30;45.00
75500;DHT22;64076;51.466;7.260;2022-12-20T17:04:14;21.30;45.00
75500;DHT22;64076;51.466;7.260;2022-12-20T17:06:40;21.30;45.10
75500;DHT22;64076;51.466;7.260;2022-12-20T17:09:06;21.30;45.00
75500;DHT22;64076;51.466;7.260;2022-12-20T17:11:32;21.30;44.90
75500;DHT22;64076;51.466;7.260;2022-12-20T17:13:58;21.30;44.90
75500;DHT22;64076;51.466;7.260;2022-12-20T17:16:25;21.30;44.90
75500;DHT22;64076;51.466;7.260;2022-12-20T17:18:53;21.30;44.90
75500;DHT22;64076;51.466;7.260;2022-12-20T17:21:23;21.30;44.90
75500;DHT22;64076;51.466;7.260;2022-12-20T17:23:51;21.30;44.80
75500;DHT22;64076;51.466;7.260;2022-12-20T17:26:25;21.20;44.90
75500;DHT22;64076;51.466;7.260;2022-12-20T17:28:52;21.20;44.90
75500;DHT22;64076;51.466;7.260;2022-12-20T17:31:34;21.20;44.90
75500;DHT22;64076;51.466;7.260;2022-12-20T17:34:04;21.20;44.90
75500;DHT22;64076;51.466;7.260;2022-12-20T17:36:30;21.20;44.90
75500;DHT22;64076;51.466;7.260;2022-12-20T17:38:56;21.10;44.90
75500;DHT22;64076;51.466;7.260;2022-12-20T17:41:29;21.10;44.90
75500;DHT22;64076;51.466;7.260;2022-12-20T17:43:57;21.10;45.00
75500;DHT22;64076;51.466;7.260;2022-12-20T17:46:22;21.10;45.00
75500;DHT22;64076;51.466;7.260;2022-12-20T17:48:48;21.10;45.00
75500;DHT22;64076;51.466;7.260;2022-12-20T17:51:16;21.10;45.00
75500;DHT22;64076;51.466;7.260;2022-12-20T17:53:47;21.00;44.90
75500;DHT22;64076;51.466;7.260;2022-12-20T17:56:14;21.00;44.90
75500;DHT22;64076;51.466;7.260;2022-12-20T17:58:42;21.00;44.90
75500;DHT22;64076;51.466;7.260;2022-12-20T18:01:28;21.00;44.90
75500;DHT22;64076;51.466;7.260;2022-12-20T18:03:56;21.00;44.80
75500;DHT22;64076;51.466;7.260;2022-12-20T18:06:23;21.00;44.90
75500;DHT22;64076;51.466;7.260;2022-12-20T18:08:53;21.00;44.80
75500;DHT22;64076;51.466;7.260;2022-12-20T18:11:21;21.00;44.80
75500;DHT22;64076;51.466;7.260;2022-12-20T19:00:28;21.00;44.80
75500;DHT22;64076;51.466;7.260;2022-12-20T19:02:54;20.90;44.60
75500;DHT22;64076;51.466;7.260;2022-12-20T19:05:24;20.80;44.60
75500;DHT22;64076;51.466;7.260;2022-12-20T19:07:51;20.80;44.50
75500;DHT22;64076;51.466;7.260;2022-12-20T19:10:17;20.80;44.50
75500;DHT22;64076;51.466;7.260;2022-12-20T19:12:42;20.80;44.60
75500;DHT22;64076;51.466;7.260;2022-12-20T19:15:08;20.80;44.50
75500;DHT22;64076;51.466;7.260;2022-12-20T19:17:34;20.80;44.50
75500;DHT22;64076;51.466;7.260;2022-12-20T19:19:59;20.80;44.50
75500;DHT22;64076;51.466;7.260;2022-12-20T19:24:51;20.80;44.60
75500;DHT22;64076;51.466;7.260;2022-12-20T19:27:17;20.80;44.60
75500;DHT22;64076;51.466;7.260;2022-12-20T19:29:43;20.80;44.50
75500;DHT22;64076;51.466;7.260;2022-12-20T19:34:34;20.80;44.50
75500;DHT22;64076;51.466;7.260;2022-12-20T19:37:00;20.80;44.50
75500;DHT22;64076;51.466;7.260;2022-12-20T19:39:25;20.80;44.50
75500;DHT22;64076;51.466;7.260;2022-12-20T19:41:53;20.80;44.50
75500;DHT22;64076;51.466;7.260;2022-12-20T19:44:18;20.80;44.50
75500;DHT22;64076;51.466;7.260;2022-12-20T19:46:44;20.80;44.50
75500;DHT22;64076;51.466;7.260;2022-12-20T19:51:35;20.80;44.50
75500;DHT22;64076;51.466;7.260;2022-12-20T19:54:01;20.80;44.60
75500;DHT22;64076;51.466;7.260;2022-12-20T19:56:29;20.80;44.60
75500;DHT22;64076;51.466;7.260;2022-12-20T19:58:56;20.80;44.50
75500;DHT22;64076;51.466;7.260;2022-12-20T20:01:22;20.80;44.50
75500;DHT22;64076;51.466;7.260;2022-12-20T20:03:50;20.80;44.60
75500;DHT22;64076;51.466;7.260;2022-12-20T20:06:17;20.80;44.50
75500;DHT22;64076;51.466;7.260;2022-12-20T20:08:42;20.80;44.60
75500;DHT22;64076;51.466;7.260;2022-12-20T20:11:09;20.80;44.60
75500;DHT22;64076;51.466;7.260;2022-12-20T20:13:36;20.80;44.50
75500;DHT22;64076;51.466;7.260;2022-12-20T20:16:02;20.80;44.60
75500;DHT22;64076;51.466;7.260;2022-12-20T20:18:29;20.80;44.60
75500;DHT22;64076;51.466;7.260;2022-12-20T20:20:56;20.70;44.60
75500;DHT22;64076;51.466;7.260;2022-12-20T20:23:22;20.80;44.60
75500;DHT22;64076;51.466;7.260;2022-12-20T20:25:53;20.70;44.60
75500;DHT22;64076;51.466;7.260;2022-12-20T20:28:21;20.70;44.60
75500;DHT22;64076;51.466;7.260;2022-12-20T20:30:48;20.70;44.60
75500;DHT22;64076;51.466;7.260;2022-12-20T20:33:14;20.70;44.60
75500;DHT22;64076;51.466;7.260;2022-12-20T20:35:40;20.70;44.60
75500;DHT22;64076;51.466;7.260;2022-12-20T20:38:06;20.70;44.60
75500;DHT22;64076;51.466;7.260;2022-12-20T20:40:33;20.70;44.60
75500;DHT22;64076;51.466;7.260;2022-12-20T20:42:59;20.70;44.60
75500;DHT22;64076;51.466;7.260;2022-12-20T20:45:26;20.70;44.60
75500;DHT22;64076;51.466;7.260;2022-12-20T20:47:53;20.70;44.60
75500;DHT22;64076;51.466;7.260;2022-12-20T20:50:19;20.80;44.60
75500;DHT22;64076;51.466;7.260;2022-12-20T20:52:45;20.70;44.60
75500;DHT22;64076;51.466;7.260;2022-12-20T20:57:37;20.70;44.60
75500;DHT22;64076;51.466;7.260;2022-12-20T21:00:04;20.70;44.60
75500;DHT22;64076;51.466;7.260;2022-12-20T21:02:30;20.70;44.60
75500;DHT22;64076;51.466;7.260;2022-12-20T21:04:56;20.70;44.60
75500;DHT22;64076;51.466;7.260;2022-12-20T21:07:21;20.70;44.70
75500;DHT22;64076;51.466;7.260;2022-12-20T21:09:47;20.70;44.70
75500;DHT22;64076;51.466;7.260;2022-12-20T21:12:13;20.70;44.70
75500;DHT22;64076;51.466;7.260;2022-12-20T21:14:39;20.70;44.70
75500;DHT22;64076;51.466;7.260;2022-12-20T21:17:05;20.70;44.70
75500;DHT22;64076;51.466;7.260;2022-12-20T21:19:30;20.70;44.70
75500;DHT22;64076;51.466;7.260;2022-12-20T21:21:56;20.70;44.70
75500;DHT22;64076;51.466;7.260;2022-12-20T21:24:21;20.70;44.70
75500;DHT22;64076;51.466;7.260;2022-12-20T21:26:47;20.70;44.70
75500;DHT22;64076;51.466;7.260;2022-12-20T21:29:13;20.70;44.70
75500;DHT22;64076;51.466;7.260;2022-12-20T21:31:38;20.70;44.70
75500;DHT22;64076;51.466;7.260;2022-12-20T21:34:04;20.70;44.70
75500;DHT22;64076;51.466;7.260;2022-12-20T21:36:30;20.70;44.70
75500;DHT22;64076;51.466;7.260;2022-12-20T21:38:56;20.70;44.70
75500;DHT22;64076;51.466;7.260;2022-12-20T21:41:24;20.70;44.70
75500;DHT22;64076;51.466;7.260;2022-12-20T21:43:53;20.70;44.70
75500;DHT22;64076;51.466;7.260;2022-12-20T21:46:20;20.70;44.60
75500;DHT22;64076;51.466;7.260;2022-12-20T21:48:46;20.70;44.70
75500;DHT22;64076;51.466;7.260;2022-12-20T21:51:14;20.70;44.60
75500;DHT22;64076;51.466;7.260;2022-12-20T21:53:48;20.70;44.70
75500;DHT22;64076;51.466;7.260;2022-12-20T21:56:14;20.70;44.70
75500;DHT22;64076;51.466;7.260;2022-12-20T21:58:41;20.70;44.70
75500;DHT22;64076;51.466;7.260;2022-12-20T22:01:07;20.70;44.60
75500;DHT22;64076;51.466;7.260;2022-12-20T22:03:33;20.70;44.70
75500;DHT22;64076;51.466;7.260;2022-12-20T22:06:00;20.70;44.70
75500;DHT22;64076;51.466;7.260;2022-12-20T22:08:26;20.70;44.70
75500;DHT22;64076;51.466;7.260;2022-12-20T22:11:10;20.70;44.60
75500;DHT22;64076;51.466;7.260;2022-12-20T22:13:36;20.70;44.60
75500;DHT22;64076;51.466;7.260;2022-12-20T22:16:10;20.70;44.60
75500;DHT22;64076;51.466;7.260;2022-12-20T22:18:37;20.70;44.70
75500;DHT22;64076;51.466;7.260;2022-12-20T22:21:04;20.70;44.60
75500;DHT22;64076;51.466;7.260;2022-12-20T22:23:29;20.70;44.60
75500;DHT22;64076;51.466;7.260;2022-12-20T22:25:55;20.70;44.60
75500;DHT22;64076;51.466;7.260;2022-12-20T22:28:21;20.70;44.60
75500;DHT22;64076;51.466;7.260;2022-12-20T22:30:46;20.70;44.60
75500;DHT22;64076;51.466;7.260;2022-12-20T22:33:12;20.70;44.60
75500;DHT22;64076;51.466;7.260;2022-12-20T22:35:37;20.70;44.60
75500;DHT22;64076;51.466;7.260;2022-12-20T22:38:04;20.70;44.60
75500;DHT22;64076;51.466;7.260;2022-12-20T22:40:30;20.70;44.60
75500;DHT22;64076;51.466;7.260;2022-12-20T22:42:55;20.70;44.70
75500;DHT22;64076;51.466;7.260;2022-12-20T22:45:21;20.70;44.60
75500;DHT22;64076;51.466;7.260;2022-12-20T22:47:46;20.70;44.60
75500;DHT22;64076;51.466;7.260;2022-12-20T22:50:12;20.70;44.70
75500;DHT22;64076;51.466;7.260;2022-12-20T22:52:38;20.70;44.70
75500;DHT22;64076;51.466;7.260;2022-12-20T22:55:03;20.70;44.70
75500;DHT22;64076;51.466;7.260;2022-12-20T22:57:29;20.70;44.70
75500;DHT22;64076;51.466;7.260;2022-12-20T22:59:54;20.70;44.70
75500;DHT22;64076;51.466;7.260;2022-12-20T23:02:23;20.70;44.70
75500;DHT22;64076;51.466;7.260;2022-12-20T23:04:49;20.70;44.70
75500;DHT22;64076;51.466;7.260;2022-12-20T23:07:15;20.70;44.70
75500;DHT22;64076;51.466;7.260;2022-12-20T23:09:41;20.70;44.70
75500;DHT22;64076;51.466;7.260;2022-12-20T23:12:08;20.70;44.70
75500;DHT22;64076;51.466;7.260;2022-12-20T23:14:52;20.70;44.70
75500;DHT22;64076;51.466;7.260;2022-12-20T23:17:36;20.70;44.70
75500;DHT22;64076;51.466;7.260;2022-12-20T23:20:02;20.70;44.80
